createdAt,value
2023-02-28T00:00:29.333Z,9.40
2023-02-28T00:01:54.767Z,8.46
2023-02-28T00:03:17.536Z,9.92
2023-02-28T00:04:40.517Z,11.65
2023-02-28T00:06:08.083Z,9.95
2023-02-28T00:07:31.429Z,10.33
2023-02-28T00:08:53.751Z,9.82
2023-02-28T00:10:18.570Z,11.77
2023-02-28T00:11:40.573Z,8.74
2023-02-28T00:13:04.327Z,8.07
2023-02-28T00:14:26.706Z,11.61
2023-02-28T00:15:48.978Z,10.22
2023-02-28T00:17:10.500Z,9.66
2023-02-28T00:18:32.695Z,9.63
2023-02-28T00:19:55.169Z,8.74
2023-02-28T00:21:17.147Z,10.24
2023-02-28T00:22:40.188Z,9.42
2023-02-28T00:24:02.554Z,7.22
2023-02-28T00:25:26.960Z,8.11
2023-02-28T00:26:48.862Z,9.31
2023-02-28T00:28:11.216Z,8.52
2023-02-28T00:29:33.738Z,9.14
2023-02-28T00:30:55.689Z,8.13
2023-02-28T00:32:17.727Z,8.17
2023-02-28T00:33:39.422Z,9.32
2023-02-28T00:35:02.913Z,9.34
2023-02-28T00:36:24.792Z,7.88
2023-02-28T00:37:46.965Z,13.71
2023-02-28T00:39:08.970Z,9.67
2023-02-28T00:40:31.288Z,13.99
2023-02-28T00:41:54.603Z,16.56
2023-02-28T00:43:17.116Z,17.14
2023-02-28T00:44:39.598Z,18.19
2023-02-28T00:46:02.409Z,13.97
2023-02-28T00:48:47.683Z,10.71
2023-02-28T00:50:11.341Z,13.12
2023-02-28T00:51:33.006Z,12.16
2023-02-28T00:52:54.826Z,11.51
2023-02-28T00:54:17.463Z,10.08
2023-02-28T00:55:39.739Z,8.81
2023-02-28T00:57:03.109Z,11.76
2023-02-28T00:58:25.669Z,15.16
2023-02-28T00:59:47.167Z,13.65
2023-02-28T01:01:09.140Z,15.69
2023-02-28T01:02:34.457Z,17.24
2023-02-28T01:03:57.017Z,16.66
2023-02-28T01:05:18.486Z,15.58
2023-02-28T01:06:40.380Z,17.13
2023-02-28T01:08:02.475Z,17.81
2023-02-28T01:09:24.978Z,13.28
2023-02-28T01:10:47.244Z,17.92
2023-02-28T01:12:08.764Z,17.02
2023-02-28T01:13:31.245Z,17.22
2023-02-28T01:14:54.192Z,19.41
2023-02-28T01:16:16.818Z,17.14
2023-02-28T01:17:38.941Z,15.56
2023-02-28T01:19:00.623Z,15.75
2023-02-28T01:20:23.921Z,12.23
2023-02-28T01:21:46.052Z,15.29
2023-02-28T01:23:07.815Z,14.66
2023-02-28T01:24:31.092Z,15.43
2023-02-28T01:25:53.325Z,14.00
2023-02-28T01:27:15.323Z,13.71
2023-02-28T01:28:36.969Z,14.95
2023-02-28T01:29:59.393Z,12.92
2023-02-28T01:31:24.020Z,11.13
2023-02-28T01:32:46.678Z,17.74
2023-02-28T01:34:08.541Z,17.08
2023-02-28T01:35:36.044Z,15.93
2023-02-28T01:36:57.666Z,19.28
2023-02-28T01:38:22.827Z,12.81
2023-02-28T01:39:43.612Z,12.17
2023-02-28T01:41:06.128Z,9.60
2023-02-28T01:42:29.335Z,9.08
2023-02-28T01:45:33.951Z,10.86
2023-02-28T01:46:56.023Z,9.04
2023-02-28T01:48:17.847Z,9.65
2023-02-28T01:49:39.761Z,9.98
2023-02-28T01:51:03.834Z,9.82
2023-02-28T01:52:26.481Z,10.13
2023-02-28T01:53:58.871Z,10.14
2023-02-28T01:55:21.371Z,10.77
2023-02-28T01:56:52.606Z,9.24
2023-02-28T01:58:15.362Z,13.23
2023-02-28T02:11:34.621Z,12.90
2023-02-28T02:14:43.022Z,11.72
2023-02-28T02:16:44.712Z,11.25
2023-02-28T02:20:05.391Z,11.29
2023-02-28T02:21:46.441Z,12.27
2023-02-28T02:23:35.360Z,13.22
2023-02-28T02:25:06.818Z,10.88
2023-02-28T02:28:38.253Z,12.44
2023-02-28T02:30:08.546Z,11.71
2023-02-28T02:32:07.626Z,14.08
2023-02-28T02:33:39.904Z,14.30
2023-02-28T02:35:24.163Z,10.52
2023-02-28T02:38:36.641Z,13.19
2023-02-28T02:40:08.993Z,14.51
2023-02-28T02:41:51.989Z,13.92
2023-02-28T02:43:23.141Z,17.60
2023-02-28T02:44:49.590Z,16.54
2023-02-28T02:46:15.921Z,15.51
2023-02-28T02:47:41.141Z,14.13
2023-02-28T02:49:06.688Z,15.91
2023-02-28T02:50:31.727Z,14.66
2023-02-28T02:51:53.680Z,14.56
2023-02-28T02:53:15.948Z,16.13
2023-02-28T02:54:40.531Z,15.67
2023-02-28T02:56:06.299Z,17.47
2023-02-28T02:57:48.282Z,18.41
2023-02-28T02:59:11.679Z,20.99
2023-02-28T03:00:42.270Z,20.16
2023-02-28T03:02:06.438Z,19.98
2023-02-28T03:03:28.637Z,21.44
2023-02-28T03:04:56.716Z,17.14
2023-02-28T03:06:21.999Z,19.68
2023-02-28T03:07:51.327Z,21.19
2023-02-28T03:09:13.646Z,20.23
2023-02-28T03:10:54.129Z,19.26
2023-02-28T03:12:16.028Z,16.86
2023-02-28T03:13:50.856Z,16.88
2023-02-28T03:15:15.822Z,16.51
2023-02-28T03:16:54.397Z,15.88
2023-02-28T03:18:27.177Z,13.87
2023-02-28T03:19:59.110Z,12.70
2023-02-28T03:21:37.000Z,14.13
2023-02-28T03:24:55.041Z,10.75
2023-02-28T03:26:24.938Z,13.86
2023-02-28T03:31:38.841Z,13.00
2023-02-28T03:33:20.569Z,12.35
2023-02-28T03:34:45.508Z,13.14
2023-02-28T03:36:12.284Z,9.95
2023-02-28T03:37:35.475Z,8.62
2023-02-28T03:39:02.892Z,8.69
2023-02-28T03:40:27.027Z,8.69
2023-02-28T03:41:52.640Z,8.67
2023-02-28T03:43:17.938Z,8.87
2023-02-28T03:44:43.848Z,9.86
2023-02-28T03:46:09.734Z,11.58
2023-02-28T03:47:48.359Z,12.74
2023-02-28T03:49:21.689Z,15.32
2023-02-28T03:50:45.705Z,14.69
2023-02-28T03:52:08.392Z,16.59
2023-02-28T03:53:32.613Z,18.13
2023-02-28T03:54:56.406Z,19.47
2023-02-28T03:56:23.508Z,17.83
2023-02-28T03:58:09.741Z,17.32
2023-02-28T03:59:36.728Z,15.35
2023-02-28T04:01:08.551Z,12.08
2023-02-28T04:02:30.589Z,13.09
2023-02-28T04:03:52.259Z,12.11
2023-02-28T04:05:14.336Z,14.12
2023-02-28T04:06:36.295Z,13.39
2023-02-28T04:08:07.795Z,13.87
2023-02-28T04:09:33.130Z,14.59
2023-02-28T04:11:04.968Z,16.72
2023-02-28T04:12:36.679Z,16.64
2023-02-28T04:14:00.390Z,16.54
2023-02-28T04:15:22.906Z,15.23
2023-02-28T04:16:45.510Z,16.25
2023-02-28T04:18:08.328Z,19.39
2023-02-28T04:19:29.962Z,19.73
2023-02-28T04:20:54.954Z,19.24
2023-02-28T04:22:17.489Z,21.32
2023-02-28T04:23:39.004Z,17.61
2023-02-28T04:25:00.896Z,19.69
2023-02-28T04:26:22.731Z,14.64
2023-02-28T04:29:27.958Z,14.79
2023-02-28T04:30:57.381Z,15.01
2023-02-28T04:32:22.680Z,13.42
2023-02-28T04:33:45.118Z,15.56
2023-02-28T04:35:08.007Z,15.56
2023-02-28T04:36:29.752Z,15.56
2023-02-28T04:37:51.478Z,20.52
2023-02-28T04:39:14.127Z,16.81
2023-02-28T04:40:36.596Z,13.74
2023-02-28T04:41:58.553Z,13.19
2023-02-28T04:43:21.149Z,13.41
2023-02-28T04:44:45.034Z,17.29
2023-02-28T04:46:07.026Z,18.43
2023-02-28T04:47:30.141Z,18.95
2023-02-28T04:48:52.609Z,20.59
2023-02-28T04:50:18.555Z,21.63
2023-02-28T04:51:48.279Z,24.24
2023-02-28T04:53:11.704Z,20.16
2023-02-28T04:54:35.989Z,23.37
2023-02-28T04:55:58.328Z,22.24
2023-02-28T04:57:20.188Z,16.83
2023-02-28T04:58:44.131Z,20.54
2023-02-28T05:00:07.251Z,21.93
2023-02-28T05:01:31.354Z,20.27
2023-02-28T05:02:54.594Z,18.31
2023-02-28T05:04:20.169Z,16.50
2023-02-28T05:05:42.432Z,16.36
2023-02-28T05:07:06.589Z,12.69
2023-02-28T05:08:29.069Z,16.64
2023-02-28T05:09:54.535Z,14.03
2023-02-28T05:12:52.482Z,14.20
2023-02-28T05:14:15.502Z,14.48
2023-02-28T05:15:37.882Z,15.83
2023-02-28T05:16:59.212Z,15.83
2023-02-28T05:18:20.999Z,17.96
2023-02-28T05:19:45.614Z,18.94
2023-02-28T05:21:18.257Z,17.73
2023-02-28T05:22:51.783Z,18.66
2023-02-28T05:25:43.012Z,16.73
2023-02-28T05:27:05.088Z,18.52
2023-02-28T05:28:27.007Z,16.42
2023-02-28T09:47:01.984Z,15.72
2023-02-28T09:48:43.095Z,15.63
2023-02-28T09:50:30.643Z,14.67
2023-02-28T09:57:52.650Z,12.82
2023-02-28T09:59:26.330Z,14.42
2023-02-28T10:02:56.023Z,13.40
2023-02-28T10:06:22.751Z,12.39
2023-02-28T10:08:14.748Z,12.83
2023-02-28T10:09:38.448Z,11.86
2023-02-28T10:11:07.555Z,14.38
2023-02-28T10:12:33.661Z,12.87
2023-02-28T10:14:02.800Z,14.03
2023-02-28T10:15:27.596Z,13.78
2023-02-28T10:17:16.785Z,11.35
2023-02-28T10:18:45.633Z,12.76
2023-02-28T10:20:13.910Z,11.54
2023-02-28T10:21:46.820Z,12.54
2023-02-28T10:39:47.769Z,15.64
2023-02-28T10:43:18.870Z,12.30
2023-02-28T10:44:41.458Z,12.21
2023-02-28T10:48:11.485Z,11.17
2023-02-28T10:55:34.123Z,12.82
2023-02-28T23:19:15.795Z,25.52
2023-02-28T23:20:38.285Z,22.24
2023-02-28T23:22:00.837Z,28.58
2023-02-28T23:23:23.147Z,28.19
2023-02-28T23:24:46.825Z,31.70
2023-02-28T23:26:10.087Z,27.05
2023-02-28T23:27:32.033Z,20.97
2023-02-28T23:28:57.511Z,18.61
2023-02-28T23:30:19.997Z,17.91
2023-02-28T23:31:43.283Z,20.61
2023-02-28T23:33:07.589Z,20.38
2023-02-28T23:34:32.306Z,18.99
2023-02-28T23:35:58.980Z,19.32
2023-02-28T23:37:21.216Z,18.48
2023-02-28T23:38:49.158Z,18.21
2023-02-28T23:40:12.291Z,17.63
2023-02-28T23:41:34.373Z,19.16
2023-02-28T23:42:56.940Z,15.46
2023-02-28T23:44:21.054Z,19.40
2023-02-28T23:45:50.634Z,18.06
2023-02-28T23:47:14.883Z,19.37
2023-02-28T23:48:40.014Z,21.09
2023-02-28T23:50:04.449Z,20.74
2023-02-28T23:51:27.032Z,19.77
2023-02-28T23:52:54.145Z,21.93
2023-02-28T23:54:18.124Z,21.16
2023-02-28T23:55:54.410Z,22.92
2023-02-28T23:57:17.592Z,28.21
2023-02-28T23:58:41.235Z,26.08
